Terminal Aerodrome Forecast
Issued by NWS Pueblo, CO

Home | Current Version | Previous Version | Text Only | Print | Product List | Glossary On
Versions: 1 2 3 4 5 6 7 8 9 10 11 12 13 14 15 16 17 18 19 20 21 22 23 24 25 26 27 28
000
FTUS45 KPUB 252327
TAFPUB
TAF
KPUB 252327Z 2600/2624 03015G25KT P6SM FEW080 SCT100 SCT150
     FM260400 03015G25KT P6SM VCSH SCT030 BKN060
     FM260800 04014KT 3SM -SN BR OVC020=

USA.gov is the U.S. government's official web portal to all federal, state and local government web resources and services.